Time;durP1;ratioP1;P1;durP2;ratioP2;P2;SDS_P1;SDS_P2;PMS_P1;PMS_P2;Temp;Humidity;BMP_temperature;BMP_pressure;BME280_temperature;BME280_humidity;BME280_pressure;Samples;Min_cycle;Max_cycle;Signal;HPM_P1;HPM_P2
2022/06/18 00:02:29;;;;;;;0.77;0.40;;;17.20;72.70;;;16.02;57.35;100761.31;9832693;29;97268;-82
2022/06/18 00:07:39;;;;;;;0.43;0.20;;;17.20;72.30;;;16.02;57.99;100757.81;9849892;29;96594;-82
2022/06/18 00:18:12;;;;;;;0.20;0.20;;;17.10;73.20;;;15.98;57.88;100767.25;9835025;29;96690;-84
2022/06/18 00:23:17;;;;;;;0.30;0.25;;;17.10;73.60;;;15.91;57.99;100771.72;9814381;29;96640;-83
2022/06/18 00:28:28;;;;;;;0.40;0.20;;;17.10;73.70;;;15.85;58.03;100775.97;9824150;29;98832;-83
2022/06/18 00:33:32;;;;;;;0.17;0.17;;;17.00;73.70;;;15.84;58.22;100774.31;9832265;29;98331;-82
2022/06/18 00:38:40;;;;;;;0.60;0.35;;;17.00;73.90;;;15.86;58.42;100776.78;9844712;29;96670;-82
2022/06/18 00:43:51;;;;;;;0.20;0.20;;;17.00;73.90;;;15.85;58.11;100770.59;9799054;29;97228;-82
2022/06/18 00:49:10;;;;;;;0.25;0.20;;;17.00;74.10;;;15.88;58.52;100790.84;9850316;29;96698;-82
2022/06/18 00:54:27;;;;;;;0.15;0.13;;;17.00;74.20;;;15.78;58.99;100791.16;9863021;29;96780;-82
2022/06/18 00:59:41;;;;;;;0.15;0.10;;;17.00;75.10;;;15.71;59.32;100785.72;9825529;29;96748;-81
2022/06/18 01:04:45;;;;;;;1.83;0.50;;;16.90;75.20;;;15.62;59.89;100788.63;9819159;29;96704;-82
2022/06/18 01:09:51;;;;;;;0.75;0.30;;;16.80;76.50;;;15.53;60.36;100787.88;9846047;29;96561;-82
2022/06/18 01:15:03;;;;;;;1.20;0.43;;;16.70;77.00;;;15.53;60.80;100787.88;9847257;29;96694;-82
2022/06/18 01:20:09;;;;;;;0.52;0.28;;;16.60;77.60;;;15.54;61.38;100784.22;9829840;29;96703;-82
2022/06/18 01:25:13;;;;;;;0.10;0.10;;;16.70;78.10;;;15.54;61.81;100773.50;9846020;29;96664;-81
2022/06/18 01:30:21;;;;;;;0.60;0.35;;;16.70;78.90;;;15.58;61.98;100766.72;9847004;29;96643;-82
2022/06/18 01:35:24;;;;;;;0.35;0.10;;;16.70;77.80;;;15.68;62.25;100770.00;9818374;29;98869;-82
2022/06/18 01:40:50;;;;;;;0.22;0.10;;;16.80;79.00;;;15.75;61.95;100776.25;9845411;29;98187;-82
2022/06/18 01:46:01;;;;;;;0.30;0.13;;;16.90;79.00;;;15.77;61.72;100768.88;9827921;29;96466;-82
2022/06/18 01:51:33;;;;;;;0.10;0.10;;;16.90;78.20;;;15.78;62.03;100765.19;9839577;29;96655;-82
2022/06/18 01:56:43;;;;;;;0.20;0.20;;;17.00;79.30;;;15.71;62.65;100760.72;9812800;29;96720;-82
2022/06/18 02:01:48;;;;;;;0.65;0.55;;;16.90;79.20;;;15.71;63.24;100761.59;9816266;29;97117;-82
2022/06/18 02:06:52;;;;;;;0.85;0.50;;;16.90;80.60;;;15.68;63.36;100755.75;9857228;29;98427;-82
2022/06/18 02:11:58;;;;;;;0.45;0.20;;;16.90;80.90;;;15.65;63.75;100753.44;9848114;29;98406;-83
2022/06/18 02:17:06;;;;;;;0.32;0.30;;;16.80;81.50;;;15.61;63.99;100747.63;9844007;29;96596;-83
2022/06/18 02:22:10;;;;;;;0.20;0.10;;;16.80;80.90;;;15.63;64.17;100755.50;9842411;29;98695;-83
2022/06/18 02:27:16;;;;;;;0.10;0.10;;;16.80;81.90;;;15.62;64.38;100749.31;9850113;29;98274;-83
2022/06/18 02:32:38;;;;;;;118.13;7.95;;;16.80;82.00;;;15.56;64.55;100755.38;9828305;29;97186;-83
2022/06/18 02:37:41;;;;;;;;;;;16.80;80.30;;;15.51;64.78;100760.47;9813753;29;97905;-84
2022/06/18 02:42:44;;;;;;;28.98;2.15;;;16.80;82.50;;;15.45;64.47;100771.91;9810746;29;96621;-84
2022/06/18 02:47:50;;;;;;;37.22;2.05;;;16.70;81.60;;;15.33;64.96;100779.59;9810665;29;96495;-84
2022/06/18 02:53:02;;;;;;;0.98;0.47;;;16.60;82.80;;;15.19;65.36;100767.88;9828373;29;96664;-83
2022/06/18 02:58:29;;;;;;;13.48;1.15;;;16.40;83.60;;;15.09;65.48;100787.88;9846170;29;96801;-83
2022/06/18 03:03:40;;;;;;;0.65;0.20;;;16.40;84.00;;;15.06;65.49;100785.59;9836886;29;98388;-83
2022/06/18 03:08:48;;;;;;;0.75;0.55;;;16.30;84.20;;;15.05;66.03;100786.56;9827706;29;97413;-83
2022/06/18 03:13:52;;;;;;;0.82;0.40;;;16.30;85.80;;;14.92;66.95;100785.34;9828713;29;98452;-83
2022/06/18 03:18:57;;;;;;;2.05;0.50;;;16.20;87.30;;;14.83;67.80;100788.31;9832203;29;96777;-83
2022/06/18 03:24:01;;;;;;;0.75;0.40;;;16.10;88.20;;;14.82;67.64;100783.97;9838771;29;96800;-83
2022/06/18 03:29:07;;;;;;;1.45;0.52;;;16.00;88.70;;;14.80;68.54;100785.97;9835240;29;97580;-83
2022/06/18 03:34:09;;;;;;;0.50;0.30;;;16.00;90.40;;;14.71;69.38;100788.75;9855396;29;96825;-82
2022/06/18 03:39:13;;;;;;;0.93;0.20;;;15.90;90.80;;;14.73;69.32;100781.34;9834242;29;97541;-81
2022/06/18 03:44:16;;;;;;;0.70;0.45;;;16.00;91.00;;;14.81;69.64;100772.41;9806375;29;96517;-81
2022/06/18 03:49:26;;;;;;;1.08;0.40;;;16.00;91.70;;;14.89;69.74;100775.03;9807040;29;96675;-81
2022/06/18 03:54:29;;;;;;;0.65;0.40;;;16.10;92.00;;;14.98;70.14;100781.13;9859854;29;97817;-81
2022/06/18 03:59:34;;;;;;;1.15;0.50;;;16.10;93.30;;;15.07;69.96;100771.19;9836909;29;96609;-81
2022/06/18 04:04:37;;;;;;;0.80;0.40;;;16.20;93.20;;;15.18;70.15;100779.59;9840218;29;96743;-81
2022/06/18 04:09:42;;;;;;;0.40;0.40;;;16.30;93.50;;;15.34;70.43;100783.09;9803724;29;97091;-81
2022/06/18 04:14:45;;;;;;;0.88;0.40;;;16.40;94.40;;;15.51;69.85;100782.72;9821651;29;96669;-81
2022/06/18 04:19:48;;;;;;;0.55;0.38;;;16.60;94.10;;;15.72;69.44;100779.31;9834127;29;97568;-81
2022/06/18 04:24:51;;;;;;;0.73;0.43;;;16.80;94.20;;;15.94;69.29;100780.19;9846852;29;96580;-81
2022/06/18 04:29:54;;;;;;;0.85;0.40;;;17.00;93.70;;;16.16;68.98;100778.38;9865728;29;96547;-81
2022/06/18 04:34:57;;;;;;;0.47;0.30;;;17.20;93.50;;;16.42;69.11;100779.66;9843208;29;96760;-81
2022/06/18 04:40:02;;;;;;;0.20;0.20;;;17.40;94.30;;;16.65;69.10;100785.66;9831366;29;96651;-81
2022/06/18 04:45:06;;;;;;;1.40;0.60;;;17.70;94.20;;;16.86;68.84;100779.47;9812329;29;96693;-81
2022/06/18 04:50:18;;;;;;;1.35;0.57;;;17.90;94.10;;;17.07;68.17;100792.81;9817041;29;96565;-81
2022/06/18 04:55:21;;;;;;;0.50;0.40;;;18.10;93.80;;;17.26;68.06;100788.59;9811445;29;96738;-81
2022/06/18 05:00:25;;;;;;;0.55;0.40;;;18.30;94.30;;;17.41;67.48;100793.06;9842103;29;96634;-81
2022/06/18 05:05:29;;;;;;;0.88;0.57;;;18.40;94.10;;;17.58;66.87;100803.28;9827109;29;97555;-81
2022/06/18 05:10:32;;;;;;;0.90;0.40;;;18.60;93.50;;;17.79;66.81;100801.53;9847362;29;97621;-81
2022/06/18 05:15:35;;;;;;;0.60;0.35;;;18.80;93.40;;;18.01;66.86;100804.94;9846116;29;97010;-81
2022/06/18 05:20:38;;;;;;;0.95;0.63;;;19.00;93.40;;;18.24;66.86;100805.41;9831776;29;96733;-82
2022/06/18 05:25:42;;;;;;;1.13;0.70;;;19.20;93.80;;;18.42;65.58;100797.59;9856862;29;96729;-82
2022/06/18 05:30:44;;;;;;;0.50;0.50;;;19.40;93.00;;;18.57;65.77;100810.84;9844517;29;96803;-82
2022/06/18 05:35:47;;;;;;;0.60;0.50;;;19.60;93.20;;;18.69;65.48;100819.16;9861120;29;96646;-82
2022/06/18 05:40:50;;;;;;;0.73;0.47;;;19.70;93.70;;;18.83;65.92;100820.00;9816251;29;96795;-84
2022/06/18 05:45:53;;;;;;;0.73;0.30;;;19.80;93.50;;;19.02;66.33;100812.97;9815139;29;96766;-84
2022/06/18 05:50:56;;;;;;;0.32;0.30;;;20.00;94.30;;;19.18;66.21;100826.00;9812924;29;96808;-84
2022/06/18 05:55:59;;;;;;;0.90;0.68;;;20.20;93.80;;;19.34;65.75;100832.81;9814127;29;96705;-84
2022/06/18 06:01:04;;;;;;;0.50;0.35;;;20.40;93.30;;;19.50;65.73;100819.75;9820485;29;97779;-84
2022/06/18 06:06:07;;;;;;;0.40;0.32;;;20.50;93.80;;;19.60;64.74;100818.47;9811608;29;98201;-84
2022/06/18 06:16:31;;;;;;;0.90;0.40;;;20.70;92.70;;;19.71;63.59;100818.66;9826558;29;96719;-84
2022/06/18 06:21:34;;;;;;;0.73;0.50;;;20.80;92.40;;;19.74;63.07;100815.53;9836429;29;96545;-84
2022/06/18 06:26:37;;;;;;;1.50;0.68;;;20.90;92.10;;;19.88;62.96;100824.41;9832069;29;96674;-84
2022/06/18 06:31:40;;;;;;;0.65;0.55;;;21.00;91.90;;;20.12;62.29;100819.31;9816196;29;96601;-84
2022/06/18 06:36:43;;;;;;;0.80;0.40;;;21.20;91.80;;;20.37;58.26;100812.09;9827215;29;96707;-84
2022/06/18 06:41:46;;;;;;;0.35;0.30;;;21.40;90.20;;;20.65;57.81;100810.94;9832610;29;97430;-82
2022/06/18 06:46:51;;;;;;;0.43;0.30;;;21.60;89.70;;;20.90;55.80;100817.16;9836248;29;96766;-82
2022/06/18 06:51:54;;;;;;;1.30;0.40;;;21.90;87.00;;;21.10;53.95;100812.41;9838705;29;96946;-83
2022/06/18 07:02:21;;;;;;;1.45;0.40;;;22.30;82.70;;;21.51;52.58;100802.03;9825220;29;96829;-81
2022/06/18 07:07:25;;;;;;;0.38;0.30;;;22.50;81.60;;;21.66;51.32;100798.97;9817959;29;96702;-82
2022/06/18 07:12:28;;;;;;;0.80;0.30;;;22.70;75.90;;;21.79;51.41;100788.81;9815908;29;97484;-82
2022/06/18 07:17:31;;;;;;;0.82;0.30;;;22.80;78.70;;;21.98;50.04;100789.59;9832080;29;99730;-82
2022/06/18 07:22:34;;;;;;;0.40;0.40;;;23.00;77.30;;;22.16;50.38;100789.59;9822900;29;96774;-83
2022/06/18 07:27:38;;;;;;;0.80;0.40;;;23.20;76.60;;;22.35;48.40;100784.13;9855275;29;96624;-82
2022/06/18 07:32:47;;;;;;;1.02;0.40;;;23.30;69.50;;;22.50;47.45;100784.53;9819801;29;96859;-81
2022/06/18 07:37:57;;;;;;;0.60;0.40;;;23.40;69.50;;;22.57;45.18;100784.41;9846370;29;96822;-81
2022/06/18 07:43:01;;;;;;;1.15;0.63;;;23.50;66.50;;;22.60;44.72;100781.22;9839296;29;96766;-82
2022/06/18 07:48:04;;;;;;;0.75;0.30;;;23.60;68.00;;;22.67;44.13;100790.06;9834843;29;98752;-82
2022/06/18 07:53:13;;;;;;;0.40;0.30;;;23.60;64.50;;;22.76;44.57;100790.56;9857504;29;98916;-81
2022/06/18 07:58:16;;;;;;;0.57;0.43;;;23.60;65.70;;;22.80;44.42;100779.03;9846674;29;96823;-82
2022/06/18 08:03:20;;;;;;;1.20;0.45;;;23.70;65.50;;;22.93;43.68;100783.44;9823384;29;96766;-81
2022/06/18 08:08:24;;;;;;;0.30;0.28;;;23.80;64.90;;;23.05;43.76;100775.31;9842737;29;96583;-82
2022/06/18 08:13:37;;;;;;;1.00;0.50;;;23.90;64.80;;;23.18;44.12;100765.03;9849106;29;97391;-83
2022/06/18 08:18:42;;;;;;;1.02;0.50;;;24.10;66.10;;;23.31;42.08;100773.97;9859374;29;98339;-82
2022/06/18 08:23:46;;;;;;;0.65;0.40;;;24.20;62.70;;;23.35;41.08;100767.03;9839053;29;97409;-82
2022/06/18 08:28:49;;;;;;;0.20;0.20;;;24.30;60.60;;;23.42;40.30;100760.41;9841791;29;98805;-82
2022/06/18 08:33:54;;;;;;;1.10;0.52;;;24.30;58.80;;;23.47;39.65;100757.78;9838773;29;96721;-81
2022/06/18 08:38:57;;;;;;;0.63;0.40;;;24.30;58.40;;;23.55;39.46;100745.75;9850296;29;96959;-83
2022/06/18 08:44:43;;;;;;;0.30;0.30;;;24.50;58.40;;;23.74;40.83;100744.53;9836472;29;96696;-82
2022/06/18 08:50:19;;;;;;;0.38;0.20;;;24.60;60.40;;;23.93;40.70;100738.91;9818491;29;96921;-83
2022/06/18 08:55:24;;;;;;;1.17;0.30;;;24.80;60.00;;;24.04;40.74;100736.13;9839808;29;97229;-82
2022/06/18 09:00:37;;;;;;;0.73;0.50;;;25.00;60.20;;;24.04;39.89;100735.31;9833317;29;97180;-83
2022/06/18 09:06:17;;;;;;;1.02;0.30;;;25.00;59.20;;;24.18;40.68;100728.53;9809080;29;96979;-82
2022/06/18 09:11:57;;;;;;;0.43;0.37;;;25.10;59.40;;;24.19;39.37;100724.75;9844609;29;97038;-82
2022/06/18 09:17:17;;;;;;;0.40;0.20;;;25.20;57.80;;;24.09;39.72;100719.13;9832804;29;97048;-82
2022/06/18 09:22:20;;;;;;;1.95;0.50;;;25.10;57.80;;;24.23;40.89;100714.19;9819596;29;98207;-81
2022/06/18 09:27:27;;;;;;;1.75;0.47;;;25.10;59.50;;;24.51;40.36;100707.91;9833351;29;97592;-83
2022/06/18 09:32:56;;;;;;;0.20;0.20;;;25.40;59.00;;;24.76;39.42;100707.47;9831905;29;96595;-82
2022/06/18 09:38:12;;;;;;;0.68;0.40;;;25.60;57.10;;;24.93;38.85;100704.72;9857954;29;98136;-82
2022/06/18 09:43:42;;;;;;;0.40;0.30;;;25.80;57.10;;;25.09;38.16;100704.72;9832785;29;98698;-82
2022/06/18 09:48:45;;;;;;;0.30;0.30;;;26.00;55.10;;;25.17;37.75;100706.16;9850331;29;96874;-83
2022/06/18 09:53:50;;;;;;;0.30;0.30;;;26.10;55.20;;;25.23;37.86;100698.91;9846014;29;97519;-82
2022/06/18 09:59:03;;;;;;;0.20;0.20;;;26.20;55.30;;;25.32;37.85;100697.41;9826075;29;98157;-82
2022/06/18 10:09:45;;;;;;;0.63;0.40;;;26.40;57.90;;;25.63;38.41;100679.53;9843654;29;96741;-82
2022/06/18 10:15:01;;;;;;;0.57;0.40;;;26.60;56.40;;;25.82;38.39;100671.84;9823694;29;96782;-83
2022/06/18 10:20:19;;;;;;;0.65;0.35;;;26.80;57.10;;;25.92;37.00;100665.69;9840880;29;97622;-83
2022/06/18 10:25:52;;;;;;;0.70;0.40;;;27.00;55.70;;;26.08;36.71;100662.81;9844509;29;96825;-83
2022/06/18 10:31:06;;;;;;;0.50;0.40;;;27.20;55.60;;;25.99;35.94;100663.56;9841099;29;96728;-83
2022/06/18 10:37:25;;;;;;;0.50;0.35;;;27.10;54.10;;;26.17;37.31;100657.75;9841916;29;97326;-83
2022/06/18 10:43:12;;;;;;;0.98;0.43;;;27.30;55.10;;;26.47;37.46;100659.09;9678254;30;96710;-83
2022/06/18 10:48:31;;;;;;;1.70;1.13;;;27.50;55.20;;;26.59;35.36;100646.91;9818291;29;97151;-83
2022/06/18 10:54:00;;;;;;;0.60;0.40;;;27.70;53.70;;;26.39;35.80;100644.03;9860519;29;96604;-83
2022/06/18 10:59:04;;;;;;;0.50;0.40;;;27.60;53.50;;;26.32;34.68;100646.94;9819023;29;97127;-83
2022/06/18 11:04:29;;;;;;;0.98;0.30;;;27.60;52.60;;;26.46;36.22;100647.38;9827576;29;97239;-82
2022/06/18 11:09:50;;;;;;;1.08;0.38;;;27.70;53.60;;;26.69;34.88;100635.25;9822077;29;99039;-83
2022/06/18 11:14:55;;;;;;;0.70;0.40;;;27.80;52.70;;;26.84;33.76;100629.84;9820186;29;96736;-83
2022/06/18 11:20:23;;;;;;;1.05;0.40;;;28.10;52.00;;;26.67;34.13;100627.31;9841054;29;97826;-84
2022/06/18 11:25:32;;;;;;;0.38;0.30;;;27.90;51.20;;;26.81;34.29;100626.81;9843084;29;96652;-84
2022/06/18 11:30:45;;;;;;;;;;;28.00;51.40;;;27.01;33.89;100621.47;9849351;29;97630;-83
2022/06/18 11:35:50;;;;;;;0.40;0.40;;;28.20;51.00;;;27.13;34.11;100602.19;9848446;29;96925;-84
2022/06/18 11:40:58;;;;;;;0.20;0.20;;;28.20;50.90;;;27.27;34.16;100588.84;9838880;29;97630;-85
2022/06/18 11:46:31;;;;;;;0.17;0.10;;;28.30;49.50;;;27.44;33.27;100590.25;9821825;29;97064;-85
2022/06/18 11:52:00;;;;;;;0.60;0.38;;;28.50;50.50;;;27.46;31.91;100589.97;9838304;29;98598;-85
2022/06/18 11:57:27;;;;;;;0.20;0.20;;;28.60;49.50;;;27.66;31.61;100572.84;9858914;29;97608;-84
2022/06/18 12:03:18;;;;;;;0.50;0.30;;;28.80;49.70;;;27.70;31.33;100577.47;9827041;29;99146;-85
2022/06/18 12:08:24;;;;;;;0.68;0.43;;;29.00;48.70;;;27.71;31.10;100565.50;9843571;29;96853;-85
2022/06/18 12:13:45;;;;;;;0.30;0.20;;;29.00;48.40;;;27.98;31.92;100564.38;9844963;29;96661;-85
2022/06/18 12:19:19;;;;;;;0.20;0.20;;;29.20;49.20;;;28.13;31.52;100556.19;9827595;29;96787;-85
2022/06/18 12:24:47;;;;;;;1.15;0.93;;;29.40;48.80;;;28.32;30.67;100548.25;9840712;29;96860;-84
2022/06/18 12:30:10;;;;;;;1.63;0.45;;;29.60;48.70;;;28.49;30.71;100550.66;9861074;29;96714;-84
2022/06/18 12:35:41;;;;;;;2.22;0.40;;;29.70;47.60;;;28.76;29.80;100542.06;9834747;29;96783;-86
2022/06/18 12:41:08;;;;;;;0.60;0.30;;;30.00;47.80;;;28.96;30.49;100539.25;9863335;29;96701;-86
2022/06/18 12:46:26;;;;;;;0.28;0.28;;;30.20;48.30;;;28.89;28.52;100541.44;9843996;29;96712;-85
2022/06/18 12:52:34;;;;;;;0.25;0.22;;;30.20;46.20;;;28.78;29.14;100523.44;9829043;29;96632;-86
2022/06/18 12:58:08;;;;;;;0.60;0.25;;;30.10;46.20;;;28.72;28.90;100524.56;9732075;29;96951;-86
2022/06/18 13:03:16;;;;;;;0.98;0.30;;;30.10;45.80;;;28.97;29.05;100515.47;9830288;29;96926;-85
2022/06/18 13:08:58;;;;;;;0.20;0.20;;;30.20;44.90;;;29.21;28.57;100510.09;9848655;29;96585;-86
2022/06/18 13:14:29;;;;;;;0.30;0.30;;;30.30;45.00;;;29.42;27.10;100508.03;9786061;29;96730;-86
2022/06/18 13:20:03;;;;;;;0.30;0.20;;;30.40;44.80;;;29.48;27.54;100494.03;9832506;29;98611;-86
2022/06/18 13:31:07;;;;;;;0.80;0.50;;;30.60;43.90;;;29.47;27.07;100486.91;9842548;29;98571;-90
2022/06/18 13:36:16;;;;;;;0.38;0.30;;;30.60;43.70;;;29.24;26.81;100491.19;9845868;29;98477;-89
2022/06/18 13:41:34;;;;;;;0.60;0.30;;;30.50;43.60;;;29.33;27.27;100473.09;9845903;29;97054;-89
2022/06/18 13:47:25;;;;;;;0.50;0.30;;;30.50;43.30;;;29.46;27.35;100479.00;9858289;29;97670;-89
2022/06/18 13:52:45;;;;;;;0.85;0.50;;;30.60;44.10;;;29.43;28.43;100472.16;9825573;29;100330;-89
2022/06/18 13:57:50;;;;;;;0.80;0.40;;;30.60;44.70;;;29.53;26.54;100458.44;9816325;29;97111;-90
2022/06/18 14:03:21;;;;;;;0.40;0.30;;;30.80;43.10;;;29.26;26.61;100463.53;9812438;29;97584;-89
2022/06/18 14:08:50;;;;;;;0.38;0.30;;;30.60;43.10;;;29.16;26.70;100464.44;9830049;29;96602;-89
2022/06/18 14:13:53;;;;;;;0.30;0.25;;;30.50;43.20;;;29.07;27.50;100444.25;9850696;29;97916;-89
2022/06/18 14:19:13;;;;;;;1.13;0.50;;;30.30;43.30;;;29.10;27.54;100448.38;9829951;29;97045;-92
2022/06/18 14:24:16;;;;;;;0.50;0.25;;;30.30;43.70;;;29.08;27.43;100445.06;9844247;29;97451;-89
2022/06/18 14:29:20;;;;;;;0.90;0.30;;;30.30;43.40;;;29.13;28.15;100437.66;9826933;29;97519;-87
2022/06/18 14:34:59;;;;;;;0.70;0.30;;;30.30;44.00;;;29.37;30.00;100435.00;9826125;29;96723;-89
2022/06/18 14:40:04;;;;;;;0.43;0.30;;;30.40;46.30;;;29.61;28.15;100418.66;9843001;29;96744;-90
2022/06/18 14:45:36;;;;;;;0.43;0.30;;;30.60;44.50;;;29.45;27.03;100417.13;9840806;29;97699;-89
2022/06/18 14:51:04;;;;;;;0.25;0.25;;;30.60;43.60;;;29.27;27.66;100399.53;9846923;29;96731;-89
2022/06/18 14:56:15;;;;;;;0.30;0.20;;;30.50;43.60;;;29.17;27.16;100400.41;9844762;29;96752;-89
2022/06/18 15:01:40;;;;;;;1.13;0.30;;;30.40;43.40;;;29.23;27.59;100392.97;9853440;29;96641;-88
2022/06/18 15:06:44;;;;;;;2.97;0.50;;;30.50;43.80;;;29.22;27.58;100400.38;9831548;29;96788;-90
2022/06/18 15:11:51;;;;;;;0.20;0.20;;;30.50;43.40;;;29.13;27.13;100399.34;9832733;29;96549;-89
2022/06/18 15:17:19;;;;;;;0.68;0.20;;;30.30;43.30;;;29.20;28.34;100385.31;9811482;29;96707;-89
2022/06/18 15:23:21;;;;;;;1.10;0.30;;;30.30;44.10;;;29.37;27.88;100384.91;9817178;29;96704;-88
2022/06/18 15:27:56;;;;;;;1.05;0.32;;;30.40;44.20;;;29.39;27.41;100377.22;9805328;29;98050;-89
2022/06/18 15:33:24;;;;;;;0.50;0.30;;;30.50;43.90;;;29.57;29.73;100379.28;9840622;29;96691;-90
2022/06/18 15:38:35;;;;;;;0.20;0.20;;;30.50;45.70;;;29.57;27.27;100371.88;9808475;29;96605;-90
2022/06/18 15:43:52;;;;;;;0.73;0.40;;;30.60;43.70;;;29.47;29.54;100374.69;9829445;29;97551;-88
2022/06/18 15:49:08;;;;;;;0.22;0.22;;;30.50;45.20;;;29.48;28.42;100372.75;9835906;29;99416;-89
2022/06/18 15:54:23;;;;;;;0.60;0.50;;;30.60;44.50;;;29.34;27.44;100372.63;9816372;29;96643;-88
2022/06/18 15:59:28;;;;;;;0.50;0.13;;;30.50;43.50;;;29.29;27.57;100367.19;9844432;29;96913;-88
2022/06/18 16:04:32;;;;;;;0.40;0.20;;;30.40;43.60;;;29.21;28.74;100367.78;9819402;29;98174;-88
2022/06/18 16:09:55;;;;;;;0.30;0.20;;;30.30;44.50;;;29.22;29.23;100358.50;9829125;29;97078;-88
2022/06/18 16:15:02;;;;;;;0.70;0.50;;;30.30;45.90;;;29.25;29.72;100368.88;9855824;29;97457;-89
2022/06/18 16:20:27;;;;;;;0.35;0.25;;;30.30;45.60;;;29.16;28.40;100362.41;9849582;29;96795;-89
2022/06/18 16:25:38;;;;;;;0.60;0.32;;;30.30;44.40;;;29.18;28.72;100365.66;9840282;29;99258;-89
2022/06/18 16:30:42;;;;;;;1.33;0.60;;;30.30;44.80;;;29.14;29.57;100367.31;9816382;29;97634;-88
2022/06/18 16:36:00;;;;;;;0.45;0.28;;;30.20;45.40;;;29.14;27.86;100364.59;9838753;29;97866;-88
2022/06/18 16:41:15;;;;;;;0.20;0.20;;;30.10;43.40;;;28.99;27.67;100369.09;9874077;29;97303;-88
2022/06/18 16:46:23;;;;;;;0.20;0.20;;;29.90;42.70;;;28.91;27.83;100368.84;9891872;29;96935;-89
2022/06/18 16:51:59;;;;;;;0.28;0.20;;;29.70;42.60;;;28.89;28.05;100369.13;9871701;29;98332;-88
2022/06/18 16:57:24;;;;;;;0.15;0.10;;;29.60;43.80;;;28.84;28.19;100357.41;9827106;29;96712;-87
2022/06/18 17:02:30;;;;;;;0.55;0.30;;;29.60;43.90;;;28.83;29.09;100353.06;9824062;29;98281;-87
2022/06/18 17:07:35;;;;;;;1.33;0.40;;;29.60;44.50;;;28.78;28.31;100359.38;9817455;29;96683;-88
2022/06/18 17:12:39;;;;;;;0.43;0.30;;;29.60;43.80;;;28.54;27.58;100349.13;9848180;29;96757;-87
2022/06/18 17:17:44;;;;;;;0.10;0.10;;;29.40;43.40;;;28.40;28.09;100344.59;9845538;29;98424;-87
2022/06/18 17:22:51;;;;;;;0.65;0.30;;;29.20;42.90;;;28.26;28.69;100344.38;9847191;29;96893;-88
2022/06/18 17:33:16;;;;;;;0.30;0.30;;;29.00;44.90;;;27.98;30.04;100340.41;9848247;29;98548;-87
2022/06/18 17:38:20;;;;;;;0.55;0.20;;;28.90;45.40;;;27.81;30.42;100335.28;9811735;29;96690;-87
2022/06/18 17:43:23;;;;;;;0.50;0.32;;;28.70;45.60;;;27.61;30.38;100335.34;9811823;29;98959;-86
2022/06/18 17:48:26;;;;;;;0.50;0.30;;;28.60;45.70;;;27.38;31.33;100334.84;9816379;29;96675;-88
2022/06/18 17:53:30;;;;;;;0.20;0.20;;;28.40;46.30;;;26.96;32.68;100329.69;9782050;29;97663;-85
2022/06/18 17:58:33;;;;;;;0.47;0.20;;;28.00;47.20;;;26.56;34.06;100331.28;9799503;29;96618;-85
2022/06/18 18:03:45;;;;;;;0.75;0.40;;;27.70;47.70;;;26.21;34.11;100340.19;9807316;29;96826;-84
2022/06/18 18:08:48;;;;;;;1.15;0.30;;;27.50;48.00;;;25.84;35.06;100359.34;9819324;29;97107;-85
2022/06/18 18:13:55;;;;;;;0.38;0.20;;;27.10;48.50;;;25.49;36.04;100349.03;9814762;29;96625;-85
2022/06/18 18:18:58;;;;;;;0.40;0.20;;;26.80;49.20;;;25.15;36.34;100349.38;9794664;29;97893;-85
2022/06/18 18:24:01;;;;;;;0.60;0.22;;;26.50;49.40;;;24.76;37.34;100346.84;9796867;29;96694;-86
2022/06/18 18:29:06;;;;;;;0.43;0.30;;;26.20;50.00;;;24.40;37.97;100345.66;9821208;29;96800;-87
2022/06/18 18:34:11;;;;;;;0.43;0.17;;;25.70;50.80;;;24.13;39.57;100350.22;9800067;29;96854;-85
2022/06/18 18:39:14;;;;;;;0.73;0.30;;;25.40;53.20;;;23.82;39.65;100349.84;9800211;29;98462;-86
2022/06/18 18:44:17;;;;;;;0.52;0.30;;;25.00;53.50;;;23.56;40.88;100354.06;9804945;29;96698;-85
2022/06/18 18:49:20;;;;;;;0.47;0.45;;;24.70;54.60;;;23.39;42.61;100355.97;9784805;29;96834;-86
2022/06/18 18:54:23;;;;;;;5.82;1.20;;;24.50;56.70;;;23.23;43.53;100355.75;9799724;29;96687;-87
2022/06/18 18:59:26;;;;;;;1.45;0.73;;;24.30;56.10;;;23.11;43.78;100357.72;9818799;29;97024;-86
2022/06/18 19:04:31;;;;;;;3.00;0.98;;;24.20;55.80;;;23.01;44.60;100368.41;9791812;29;97374;-86
2022/06/18 19:09:34;;;;;;;1.95;0.70;;;24.10;57.20;;;22.88;45.56;100379.56;9821073;29;97301;-85
2022/06/18 19:14:37;;;;;;;4.25;1.00;;;23.90;57.90;;;22.71;46.59;100380.31;9815685;29;98969;-86
2022/06/18 19:19:40;;;;;;;1.95;0.90;;;23.80;58.80;;;22.53;46.97;100390.53;9801011;29;96973;-87
2022/06/18 19:24:43;;;;;;;2.17;0.80;;;23.60;59.70;;;22.32;47.60;100394.75;9813615;29;98483;-86
2022/06/18 19:29:46;;;;;;;1.45;1.00;;;23.40;60.30;;;22.17;47.58;100401.47;9795574;29;97196;-86
2022/06/18 19:34:49;;;;;;;1.30;0.80;;;23.20;59.90;;;22.05;48.88;100411.47;9807984;29;96568;-85
2022/06/18 19:39:52;;;;;;;0.98;0.70;;;23.10;60.00;;;21.86;48.62;100421.63;9805040;29;97155;-86
2022/06/18 19:44:55;;;;;;;1.45;0.75;;;23.00;60.20;;;21.49;48.00;100415.63;9781642;29;97412;-86
2022/06/18 19:49:58;;;;;;;1.35;0.80;;;22.80;59.90;;;21.23;49.56;100408.75;9787267;29;97993;-84
2022/06/18 19:55:07;;;;;;;2.75;1.10;;;22.40;62.90;;;20.88;50.87;100407.88;9800079;29;96561;-84
2022/06/18 20:00:13;;;;;;;1.73;1.00;;;22.10;64.20;;;20.73;51.34;100409.09;9799772;29;96722;-84
2022/06/18 20:05:17;;;;;;;1.58;0.82;;;21.80;63.80;;;20.61;52.36;100412.78;9792307;29;96791;-85
2022/06/18 20:10:20;;;;;;;0.90;0.73;;;21.70;64.70;;;20.47;52.83;100412.97;9827198;29;96839;-84
2022/06/18 20:15:25;;;;;;;1.55;0.90;;;21.60;66.20;;;20.40;53.24;100420.31;9806282;29;96668;-85
2022/06/18 20:20:29;;;;;;;1.50;0.90;;;21.40;65.90;;;20.35;53.54;100420.16;9810163;29;96773;-85
2022/06/18 20:25:33;;;;;;;1.65;0.85;;;21.40;66.40;;;20.25;53.37;100419.88;9795632;29;96718;-85
2022/06/18 20:30:36;;;;;;;1.50;1.00;;;21.30;66.20;;;20.15;53.71;100415.00;9834123;29;97207;-85
2022/06/18 20:35:46;;;;;;;2.17;0.98;;;21.20;67.10;;;20.03;54.39;100422.19;9825548;29;96632;-85
2022/06/18 20:41:02;;;;;;;;;;;21.10;67.50;;;19.91;53.90;100423.97;9847709;29;97050;-86
2022/06/18 20:46:18;;;;;;;1.98;1.00;;;21.00;68.00;;;19.76;54.25;100424.34;9832710;29;96712;-86
2022/06/18 20:51:33;;;;;;;2.97;0.80;;;20.80;67.60;;;19.71;53.29;100426.88;9813823;29;97332;-86
2022/06/18 21:01:58;;;;;;;3.55;2.00;;;20.80;66.60;;;19.67;53.16;100429.22;9833475;29;96716;-85
2022/06/18 21:07:02;;;;;;;1.50;0.95;;;20.80;66.80;;;19.60;53.67;100417.63;9830882;29;97011;-86
2022/06/18 21:12:06;;;;;;;2.22;1.00;;;20.70;67.20;;;19.47;53.75;100423.13;9813118;29;97031;-86
2022/06/18 21:17:11;;;;;;;1.88;1.10;;;20.60;66.90;;;19.39;53.52;100412.63;9815775;29;96768;-85
2022/06/18 21:22:17;;;;;;;2.13;1.20;;;20.50;67.00;;;19.34;53.77;100412.47;9812810;29;96714;-88
2022/06/18 21:27:21;;;;;;;1.55;0.90;;;20.40;67.80;;;19.24;54.18;100415.63;9816205;29;96719;-84
2022/06/18 21:37:48;;;;;;;3.95;0.80;;;20.30;68.00;;;19.05;55.18;100432.78;9825578;29;97933;-85
2022/06/18 21:42:51;;;;;;;2.10;1.00;;;20.20;68.70;;;18.93;55.29;100438.84;9839937;29;97412;-85
2022/06/18 21:47:55;;;;;;;1.13;0.60;;;20.00;69.30;;;18.80;55.54;100438.13;9803113;29;96617;-86
2022/06/18 21:52:58;;;;;;;0.57;0.43;;;19.90;69.10;;;18.70;55.33;100443.94;9810216;29;97707;-86
2022/06/18 21:58:05;;;;;;;1.70;0.77;;;19.80;69.20;;;18.67;55.35;100442.53;9829896;29;96648;-86
2022/06/18 22:03:11;;;;;;;1.52;0.80;;;19.80;69.00;;;18.68;55.77;100435.28;9820886;29;97846;-86
2022/06/18 22:08:17;;;;;;;1.05;0.47;;;19.80;69.50;;;18.62;56.45;100442.31;9843912;29;98292;-86
2022/06/18 22:18:56;;;;;;;1.52;1.00;;;19.60;69.80;;;18.49;56.66;100438.88;9813033;29;96699;-86
2022/06/18 22:23:59;;;;;;;1.67;0.80;;;19.60;70.00;;;18.43;56.54;100444.06;9860425;29;96666;-86